createdAt,value
2018-09-26T00:01:13.435Z,10.33
2018-09-26T00:03:46.216Z,10.35
2018-09-26T00:06:15.442Z,10.24
2018-09-26T00:08:44.346Z,10.24
2018-09-26T00:11:13.263Z,10.23
2018-09-26T00:13:42.263Z,10.21
2018-09-26T00:16:11.420Z,10.23
2018-09-26T00:18:40.388Z,10.20
2018-09-26T00:21:09.319Z,10.23
2018-09-26T00:23:38.228Z,10.16
2018-09-26T00:26:07.227Z,10.13
2018-09-26T00:28:36.115Z,10.02
2018-09-26T00:31:05.043Z,9.99
2018-09-26T00:33:33.998Z,9.90
2018-09-26T00:36:02.916Z,9.93
2018-09-26T00:38:38.256Z,9.87
2018-09-26T00:41:07.409Z,9.88
2018-09-26T00:43:36.294Z,9.90
2018-09-26T00:46:05.246Z,9.85
2018-09-26T00:48:34.172Z,9.90
2018-09-26T00:51:03.096Z,9.85
2018-09-26T00:53:32.079Z,9.93
2018-09-26T00:56:01.017Z,9.93
2018-09-26T00:58:29.987Z,9.87
2018-09-26T01:00:58.903Z,9.85
2018-09-26T01:03:27.730Z,9.86
2018-09-26T01:05:56.632Z,9.93
2018-09-26T01:08:25.581Z,9.92
2018-09-26T01:10:54.587Z,9.95
2018-09-26T01:13:23.481Z,9.88
2018-09-26T01:15:52.592Z,9.83
2018-09-26T01:18:21.527Z,9.80
2018-09-26T01:20:51.421Z,9.74
2018-09-26T01:23:20.262Z,9.72
2018-09-26T01:25:49.163Z,9.65
2018-09-26T01:28:17.990Z,9.56
2018-09-26T01:30:46.879Z,9.58
2018-09-26T01:33:15.775Z,9.57
2018-09-26T01:35:44.784Z,9.66
2018-09-26T01:38:13.674Z,9.63
2018-09-26T01:40:42.606Z,9.60
2018-09-26T01:43:11.492Z,9.59
2018-09-26T01:45:40.388Z,9.55
2018-09-26T01:48:09.260Z,9.53
2018-09-26T01:50:38.163Z,9.51
2018-09-26T01:53:07.246Z,9.47
2018-09-26T01:55:36.168Z,9.38
2018-09-26T01:58:06.448Z,9.39
2018-09-26T02:00:35.322Z,9.37
2018-09-26T02:03:04.299Z,9.35
2018-09-26T02:05:33.268Z,9.27
2018-09-26T02:08:02.122Z,9.28
2018-09-26T02:10:30.993Z,9.27
2018-09-26T02:12:59.991Z,9.29
2018-09-26T02:15:28.938Z,9.28
2018-09-26T02:17:57.863Z,9.28
2018-09-26T02:20:26.947Z,9.23
2018-09-26T02:22:55.815Z,9.22
2018-09-26T02:25:24.699Z,9.20
2018-09-26T02:27:53.703Z,9.22
2018-09-26T02:30:22.559Z,9.15
2018-09-26T02:32:51.495Z,9.19
2018-09-26T02:35:20.384Z,9.17
2018-09-26T02:37:49.260Z,9.07
2018-09-26T02:40:18.122Z,9.05
2018-09-26T02:42:48.365Z,9.00
2018-09-26T02:45:17.199Z,9.03
2018-09-26T02:47:46.114Z,9.02
2018-09-26T02:50:15.976Z,8.87
2018-09-26T02:52:44.822Z,8.95
2018-09-26T02:55:13.714Z,8.96
2018-09-26T02:57:42.608Z,8.97
2018-09-26T03:00:11.470Z,8.97
2018-09-26T03:02:40.283Z,8.93
2018-09-26T03:05:09.139Z,8.95
2018-09-26T03:07:37.996Z,8.90
2018-09-26T03:10:08.259Z,8.84
2018-09-26T03:12:37.079Z,8.82
2018-09-26T03:15:06.122Z,8.81
2018-09-26T03:17:35.089Z,8.80
2018-09-26T03:20:04.017Z,8.79
2018-09-26T03:22:32.846Z,8.67
2018-09-26T03:25:01.757Z,8.63
2018-09-26T03:27:30.628Z,8.63
2018-09-26T03:29:59.538Z,8.67
2018-09-26T03:32:29.691Z,8.69
2018-09-26T03:34:58.544Z,8.69
2018-09-26T03:37:27.439Z,8.79
2018-09-26T03:39:56.345Z,9.05
2018-09-26T03:42:25.267Z,9.14
2018-09-26T03:44:54.104Z,9.15
2018-09-26T03:47:23.089Z,9.21
2018-09-26T03:49:51.967Z,9.30
2018-09-26T03:52:20.813Z,9.34
2018-09-26T03:54:49.744Z,9.26
2018-09-26T03:57:18.615Z,9.24
2018-09-26T03:59:47.538Z,9.34
2018-09-26T04:02:16.558Z,9.35
2018-09-26T04:04:45.487Z,9.37
2018-09-26T04:07:14.365Z,9.38
2018-09-26T04:09:43.278Z,9.32
2018-09-26T04:12:12.160Z,9.38
2018-09-26T04:14:41.029Z,9.32
2018-09-26T04:17:10.008Z,9.41
2018-09-26T04:19:38.857Z,9.37
2018-09-26T04:22:07.739Z,9.38
2018-09-26T04:24:36.692Z,9.31
2018-09-26T04:27:05.703Z,9.34
2018-09-26T04:29:34.547Z,9.46
2018-09-26T04:32:04.700Z,9.43
2018-09-26T04:34:33.579Z,9.44
2018-09-26T04:37:02.461Z,9.40
2018-09-26T04:39:32.623Z,9.45
2018-09-26T04:42:01.510Z,9.51
2018-09-26T04:44:30.459Z,9.53
2018-09-26T04:46:59.470Z,9.55
2018-09-26T04:49:28.318Z,9.57
2018-09-26T04:51:57.175Z,9.56
2018-09-26T04:54:27.736Z,9.62
2018-09-26T04:56:56.602Z,9.62
2018-09-26T04:59:25.500Z,9.57
2018-09-26T05:01:54.437Z,9.68
2018-09-26T05:04:23.351Z,9.75
2018-09-26T05:06:52.314Z,9.83
2018-09-26T05:09:21.212Z,9.86
2018-09-26T05:11:50.170Z,9.97
2018-09-26T05:14:19.023Z,10.06
2018-09-26T05:16:47.922Z,10.12
2018-09-26T05:19:16.859Z,10.14
2018-09-26T05:21:45.779Z,10.27
2018-09-26T05:24:14.710Z,10.33
2018-09-26T05:26:43.612Z,10.38
2018-09-26T05:29:12.470Z,10.52
2018-09-26T05:31:41.422Z,10.60
2018-09-26T05:34:10.310Z,10.68
2018-09-26T05:36:39.211Z,10.83
2018-09-26T05:39:10.920Z,10.97
2018-09-26T05:41:39.811Z,10.97
2018-09-26T05:44:08.883Z,10.96
2018-09-26T05:46:37.782Z,10.94
2018-09-26T05:49:06.767Z,10.96
2018-09-26T05:51:35.578Z,11.04
2018-09-26T05:54:04.524Z,11.10
2018-09-26T05:56:33.413Z,11.17
2018-09-26T05:59:04.642Z,11.22
2018-09-26T06:01:33.539Z,11.30
2018-09-26T06:04:02.626Z,11.40
2018-09-26T06:06:31.477Z,11.35
2018-09-26T06:09:00.437Z,11.22
2018-09-26T06:11:29.430Z,11.28
2018-09-26T06:13:58.435Z,11.44
2018-09-26T06:16:27.392Z,11.57
2018-09-26T06:18:56.311Z,11.56
2018-09-26T06:21:25.172Z,11.53
2018-09-26T06:23:55.311Z,11.59
2018-09-26T06:26:24.236Z,11.60
2018-09-26T06:28:53.102Z,11.63
2018-09-26T06:31:22.063Z,11.65
2018-09-26T06:33:50.940Z,11.82
2018-09-26T06:36:19.846Z,11.97
2018-09-26T06:38:48.730Z,12.06
2018-09-26T06:41:17.663Z,12.14
2018-09-26T06:43:46.529Z,12.23
2018-09-26T06:46:15.487Z,12.25
2018-09-26T06:48:44.494Z,12.22
2018-09-26T06:51:13.370Z,12.33
2018-09-26T06:53:42.340Z,12.38
2018-09-26T06:56:11.250Z,12.52
2018-09-26T06:58:40.203Z,12.68
2018-09-26T07:01:09.139Z,12.54
2018-09-26T07:03:38.039Z,12.50
2018-09-26T07:06:06.891Z,12.47
2018-09-26T07:08:37.230Z,12.57
2018-09-26T07:11:06.196Z,12.47
2018-09-26T07:13:35.064Z,12.73
2018-09-26T07:16:03.954Z,12.97
2018-09-26T07:18:32.907Z,12.99
2018-09-26T07:21:01.793Z,13.17
2018-09-26T07:23:31.950Z,13.02
2018-09-26T07:26:00.872Z,12.94
2018-09-26T07:28:32.202Z,12.88
2018-09-26T07:31:01.062Z,13.23
2018-09-26T07:33:30.011Z,13.30
2018-09-26T07:35:59.107Z,13.41
2018-09-26T07:38:28.021Z,13.29
2018-09-26T07:40:58.160Z,13.22
2018-09-26T07:43:27.031Z,13.09
2018-09-26T07:45:55.969Z,13.20
2018-09-26T07:48:26.170Z,13.20
2018-09-26T07:50:56.342Z,13.16
2018-09-26T07:53:25.303Z,13.21
2018-09-26T07:55:54.260Z,13.10
2018-09-26T07:58:23.210Z,13.34
2018-09-26T08:00:52.109Z,13.20
2018-09-26T08:03:20.970Z,13.36
2018-09-26T08:05:49.870Z,13.69
2018-09-26T08:08:18.779Z,13.75
2018-09-26T08:10:49.107Z,13.82
2018-09-26T08:13:18.040Z,14.00
2018-09-26T08:15:46.917Z,13.47
2018-09-26T08:18:15.968Z,13.71
2018-09-26T08:20:44.742Z,14.01
2018-09-26T08:23:13.808Z,14.15
2018-09-26T08:25:44.101Z,13.92
2018-09-26T08:28:13.041Z,13.87
2018-09-26T08:30:41.921Z,13.79
2018-09-26T08:33:12.202Z,13.97
2018-09-26T08:35:41.134Z,13.79
2018-09-26T08:38:10.123Z,13.62
2018-09-26T08:40:40.327Z,13.70
2018-09-26T08:43:09.460Z,14.03
2018-09-26T08:45:38.612Z,14.25
2018-09-26T08:48:07.598Z,14.04
2018-09-26T08:50:36.559Z,13.87
2018-09-26T08:53:05.500Z,14.04
2018-09-26T08:55:35.699Z,13.87
2018-09-26T08:58:04.652Z,14.23
2018-09-26T09:00:35.905Z,14.44
2018-09-26T09:03:06.709Z,14.40
2018-09-26T09:05:35.652Z,14.28
2018-09-26T09:08:04.668Z,14.41
2018-09-26T09:10:33.682Z,14.74
2018-09-26T09:13:02.605Z,14.78
2018-09-26T09:15:31.571Z,14.67
2018-09-26T09:18:00.512Z,14.53
2018-09-26T09:20:29.409Z,14.93
2018-09-26T09:22:58.330Z,14.89
2018-09-26T09:25:27.200Z,15.18
2018-09-26T09:27:56.088Z,14.97
2018-09-26T09:30:25.039Z,15.30
2018-09-26T09:32:53.919Z,15.17
2018-09-26T09:35:22.875Z,14.96
2018-09-26T09:37:51.998Z,15.00
2018-09-26T09:40:21.041Z,15.05
2018-09-26T09:42:49.892Z,15.27
2018-09-26T09:45:18.759Z,15.29
2018-09-26T09:47:47.623Z,15.21
2018-09-26T09:50:16.485Z,15.40
2018-09-26T09:52:46.807Z,15.67
2018-09-26T09:55:15.684Z,15.54
2018-09-26T09:57:44.570Z,15.60
2018-09-26T10:00:13.471Z,15.41
2018-09-26T10:02:42.373Z,15.31
2018-09-26T10:05:11.319Z,15.32
2018-09-26T10:07:42.679Z,15.53
2018-09-26T10:10:11.579Z,15.14
2018-09-26T10:12:40.583Z,15.23
2018-09-26T10:15:09.507Z,15.24
2018-09-26T10:17:38.553Z,15.59
2018-09-26T10:20:07.413Z,15.28
2018-09-26T10:22:36.256Z,15.46
2018-09-26T10:25:05.194Z,15.60
2018-09-26T10:27:35.666Z,15.64
2018-09-26T10:30:04.812Z,15.65
2018-09-26T10:32:33.704Z,15.65
2018-09-26T10:35:03.946Z,15.61
2018-09-26T10:37:32.676Z,15.99
2018-09-26T10:40:01.496Z,15.60
2018-09-26T10:42:31.655Z,15.89
2018-09-26T10:45:00.423Z,16.01
2018-09-26T10:47:29.292Z,15.93
2018-09-26T10:49:59.595Z,15.95
2018-09-26T10:52:28.511Z,15.93
2018-09-26T10:54:57.385Z,16.28
2018-09-26T10:57:27.601Z,16.14
2018-09-26T10:59:56.528Z,15.84
2018-09-26T11:02:25.369Z,16.27
2018-09-26T11:04:55.548Z,16.35
2018-09-26T11:07:24.656Z,16.30
2018-09-26T11:09:54.011Z,16.20
2018-09-26T11:12:22.912Z,15.74
2018-09-26T11:14:51.765Z,16.16
2018-09-26T11:17:20.801Z,16.10
2018-09-26T11:19:50.955Z,16.20
2018-09-26T11:22:19.881Z,16.45
2018-09-26T11:24:48.805Z,16.17
2018-09-26T11:27:18.978Z,16.29
2018-09-26T11:29:47.851Z,16.18
2018-09-26T11:32:16.677Z,16.62
2018-09-26T11:34:45.557Z,16.25
2018-09-26T11:37:14.343Z,15.95
2018-09-26T11:39:43.241Z,16.10
2018-09-26T11:42:12.132Z,16.48
2018-09-26T11:44:41.090Z,16.20
2018-09-26T11:47:09.856Z,16.34
2018-09-26T11:49:38.716Z,16.14
2018-09-26T11:52:07.722Z,16.09
2018-09-26T11:54:36.543Z,16.09
2018-09-26T11:57:05.424Z,16.03
2018-09-26T11:59:34.378Z,16.08
2018-09-26T12:02:03.280Z,16.15
2018-09-26T12:04:32.081Z,16.03
2018-09-26T12:07:00.902Z,16.16
2018-09-26T12:09:29.765Z,16.17
2018-09-26T12:11:58.648Z,16.46
2018-09-26T12:14:27.528Z,16.37
2018-09-26T12:16:56.379Z,16.43
2018-09-26T12:19:25.279Z,16.22
2018-09-26T12:21:54.151Z,15.91
2018-09-26T12:24:23.123Z,15.88
2018-09-26T12:26:53.568Z,15.99
2018-09-26T12:29:22.441Z,16.06
2018-09-26T12:31:51.281Z,16.45
2018-09-26T12:34:20.340Z,16.55
2018-09-26T12:36:49.256Z,16.27
2018-09-26T12:39:18.310Z,15.67
2018-09-26T12:41:47.232Z,15.96
2018-09-26T12:44:16.129Z,15.95
2018-09-26T12:46:45.024Z,16.32
2018-09-26T12:49:15.119Z,16.47
2018-09-26T12:51:43.986Z,16.19
2018-09-26T12:54:12.847Z,15.97
2018-09-26T12:56:41.750Z,15.53
2018-09-26T12:59:12.063Z,15.69
2018-09-26T13:01:40.966Z,15.87
2018-09-26T13:04:10.156Z,16.22
2018-09-26T13:06:39.007Z,16.56
2018-09-26T13:09:08.311Z,16.10
2018-09-26T13:11:37.241Z,16.06
2018-09-26T13:14:06.171Z,15.93
2018-09-26T13:16:35.064Z,15.80
2018-09-26T13:19:04.026Z,15.82
2018-09-26T13:21:32.931Z,16.13
2018-09-26T13:24:01.837Z,17.21
2018-09-26T13:26:30.728Z,16.94
2018-09-26T13:29:00.996Z,16.29
2018-09-26T13:31:30.024Z,15.66
2018-09-26T13:33:58.882Z,15.73
2018-09-26T13:36:27.838Z,15.85
2018-09-26T13:38:56.937Z,15.93
2018-09-26T13:41:25.945Z,16.15
2018-09-26T13:43:55.227Z,16.47
2018-09-26T13:46:24.655Z,17.23
2018-09-26T13:48:53.508Z,17.13
2018-09-26T13:51:22.386Z,16.75
2018-09-26T13:53:52.602Z,16.64
2018-09-26T13:56:21.593Z,16.93
2018-09-26T13:58:50.506Z,17.19
2018-09-26T14:01:19.552Z,17.65
2018-09-26T14:03:48.471Z,17.80
2018-09-26T14:06:17.419Z,17.93
2018-09-26T14:08:46.388Z,17.22
2018-09-26T14:11:15.278Z,17.01
2018-09-26T14:13:44.222Z,17.10
2018-09-26T14:16:13.188Z,16.46
2018-09-26T14:18:42.085Z,16.26
2018-09-26T14:21:11.081Z,16.74
2018-09-26T14:23:40.121Z,17.47
2018-09-26T14:26:09.001Z,17.38
2018-09-26T14:28:37.934Z,18.28
2018-09-26T14:31:06.949Z,18.15
2018-09-26T14:33:35.983Z,17.12
2018-09-26T14:36:04.849Z,16.75
2018-09-26T14:38:33.748Z,16.46
2018-09-26T14:41:02.656Z,16.27
2018-09-26T14:43:32.828Z,17.22
2018-09-26T14:46:01.862Z,17.25
2018-09-26T14:48:30.784Z,17.14
2018-09-26T14:50:59.687Z,17.89
2018-09-26T14:53:28.680Z,18.25
2018-09-26T14:55:57.576Z,17.35
2018-09-26T14:58:26.432Z,17.21
2018-09-26T15:00:56.838Z,17.14
2018-09-26T15:03:27.141Z,16.42
2018-09-26T15:05:56.054Z,16.23
2018-09-26T15:08:25.186Z,16.12
2018-09-26T15:10:54.106Z,15.84
2018-09-26T15:13:22.942Z,15.63
2018-09-26T15:15:51.840Z,15.45
2018-09-26T15:18:20.827Z,15.32
2018-09-26T15:20:49.652Z,15.25
2018-09-26T15:23:18.600Z,15.35
2018-09-26T15:25:47.403Z,15.30
2018-09-26T15:28:16.436Z,15.46
2018-09-26T15:30:45.261Z,15.86
2018-09-26T15:33:14.134Z,15.74
2018-09-26T15:35:43.074Z,15.55
2018-09-26T15:38:12.029Z,15.79
2018-09-26T15:40:41.095Z,15.69
2018-09-26T15:43:11.115Z,15.70
2018-09-26T15:45:40.012Z,15.65
2018-09-26T15:48:09.143Z,15.52
2018-09-26T15:50:39.258Z,15.39
2018-09-26T15:53:08.297Z,15.37
2018-09-26T15:55:37.295Z,15.26
2018-09-26T15:58:06.286Z,15.12
2018-09-26T16:00:35.227Z,14.96
2018-09-26T16:03:05.720Z,14.82
2018-09-26T16:05:34.646Z,14.78
2018-09-26T16:08:03.544Z,14.79
2018-09-26T16:10:32.456Z,14.75
2018-09-26T16:13:01.328Z,14.72
2018-09-26T16:15:30.265Z,14.67
2018-09-26T16:17:59.193Z,14.65
2018-09-26T16:20:28.085Z,14.59
2018-09-26T16:22:57.063Z,14.56
2018-09-26T16:25:25.979Z,14.50
2018-09-26T16:27:54.846Z,14.43
2018-09-26T16:30:23.886Z,14.32
2018-09-26T16:32:52.694Z,14.25
2018-09-26T16:35:21.786Z,14.22
2018-09-26T16:37:52.532Z,14.19
2018-09-26T16:40:21.643Z,14.16
2018-09-26T16:42:50.540Z,14.16
2018-09-26T16:45:20.819Z,14.21
2018-09-26T16:47:49.788Z,14.21
2018-09-26T16:50:18.730Z,14.21
2018-09-26T16:52:50.340Z,14.20
2018-09-26T16:55:19.276Z,14.20
2018-09-26T16:57:48.151Z,14.14
2018-09-26T17:00:17.117Z,14.16
2018-09-26T17:02:46.040Z,14.17
2018-09-26T17:05:14.932Z,14.20
2018-09-26T17:07:43.858Z,14.16
2018-09-26T17:10:12.754Z,14.15
2018-09-26T17:12:41.725Z,14.15
2018-09-26T17:15:10.745Z,14.14
2018-09-26T17:17:39.595Z,14.06
2018-09-26T17:20:08.509Z,14.05
2018-09-26T17:22:37.398Z,14.01
2018-09-26T17:25:06.291Z,13.94
2018-09-26T17:27:35.147Z,13.87
2018-09-26T17:30:04.258Z,13.82
2018-09-26T17:32:33.189Z,13.69
2018-09-26T17:35:02.156Z,13.64
2018-09-26T17:37:31.110Z,13.58
2018-09-26T17:40:00.073Z,13.53
2018-09-26T17:42:28.927Z,13.43
2018-09-26T17:44:57.968Z,13.38
2018-09-26T17:47:28.202Z,13.40
2018-09-26T17:49:57.140Z,13.29
2018-09-26T17:52:27.095Z,13.13
2018-09-26T17:54:55.991Z,13.17
2018-09-26T17:57:24.951Z,13.12
2018-09-26T17:59:53.827Z,13.05
2018-09-26T18:02:22.721Z,12.97
2018-09-26T18:04:51.607Z,12.90
2018-09-26T18:07:20.565Z,12.93
2018-09-26T18:09:50.796Z,12.88
2018-09-26T18:12:19.822Z,12.87
2018-09-26T18:14:48.726Z,12.88
2018-09-26T18:17:17.755Z,12.85
2018-09-26T18:19:46.708Z,12.82
2018-09-26T18:22:15.605Z,12.80
2018-09-26T18:24:44.548Z,12.72
2018-09-26T18:27:13.483Z,12.68
2018-09-26T18:29:43.718Z,12.62
2018-09-26T18:32:12.695Z,12.61
2018-09-26T18:34:41.787Z,12.54
2018-09-26T18:37:10.669Z,12.54
2018-09-26T18:39:39.683Z,12.49
2018-09-26T18:42:08.593Z,12.46
2018-09-26T18:44:37.504Z,12.42
2018-09-26T18:47:06.432Z,12.41
2018-09-26T18:49:35.364Z,12.36
2018-09-26T18:52:04.341Z,12.32
2018-09-26T18:54:33.338Z,12.29
2018-09-26T18:57:02.246Z,12.20
2018-09-26T18:59:31.167Z,12.20
2018-09-26T19:02:01.344Z,12.19
2018-09-26T19:04:30.301Z,12.12
2018-09-26T19:06:59.208Z,12.04
2018-09-26T19:09:29.348Z,11.97
2018-09-26T19:11:58.243Z,11.99
2018-09-26T19:14:27.199Z,11.97
2018-09-26T19:16:57.327Z,11.94
2018-09-26T19:19:26.221Z,11.92
2018-09-26T19:21:55.128Z,11.91
2018-09-26T19:24:24.154Z,11.93
2018-09-26T19:26:53.163Z,11.88
2018-09-26T19:29:22.098Z,11.86
2018-09-26T19:31:51.100Z,11.82
2018-09-26T19:34:20.021Z,11.81
2018-09-26T19:36:48.930Z,11.79
2018-09-26T19:39:17.890Z,11.69
2018-09-26T19:41:46.767Z,11.63
2018-09-26T19:44:15.615Z,11.63
2018-09-26T19:46:44.544Z,11.61
2018-09-26T19:49:13.427Z,11.65
2018-09-26T19:51:42.320Z,11.63
2018-09-26T19:54:11.250Z,11.63
2018-09-26T19:56:40.090Z,11.61
2018-09-26T19:59:09.032Z,11.59
2018-09-26T20:01:38.149Z,11.55
2018-09-26T20:04:07.075Z,11.47
2018-09-26T20:06:36.048Z,11.43
2018-09-26T20:09:07.786Z,11.45
2018-09-26T20:11:36.741Z,11.41
2018-09-26T20:14:05.843Z,11.39
2018-09-26T20:16:34.914Z,11.34
2018-09-26T20:19:04.047Z,11.34
2018-09-26T20:21:32.917Z,11.30
2018-09-26T20:24:01.873Z,11.26
2018-09-26T20:26:30.860Z,11.33
2018-09-26T20:28:59.982Z,11.30
2018-09-26T20:31:29.234Z,11.26
2018-09-26T20:33:58.136Z,11.30
2018-09-26T20:36:27.080Z,11.30
2018-09-26T20:38:56.063Z,11.37
2018-09-26T20:41:25.140Z,11.40
2018-09-26T20:43:54.093Z,11.45
2018-09-26T20:46:23.050Z,11.53
2018-09-26T20:48:52.104Z,11.54
2018-09-26T20:51:21.084Z,11.52
2018-09-26T20:53:50.057Z,11.49
2018-09-26T20:56:18.978Z,11.42
2018-09-26T20:58:47.946Z,11.40
2018-09-26T21:01:16.939Z,11.42
2018-09-26T21:03:45.854Z,11.48
2018-09-26T21:06:14.796Z,11.53
2018-09-26T21:08:43.772Z,11.54
2018-09-26T21:11:12.784Z,11.54
2018-09-26T21:13:41.716Z,11.59
2018-09-26T21:16:10.731Z,11.62
2018-09-26T21:18:39.711Z,11.65
2018-09-26T21:21:08.718Z,11.61
2018-09-26T21:23:37.642Z,11.60
2018-09-26T21:26:06.574Z,11.61
2018-09-26T21:28:35.447Z,11.63
2018-09-26T21:31:04.368Z,11.68
2018-09-26T21:33:33.315Z,11.63
2018-09-26T21:36:02.176Z,11.58
2018-09-26T21:38:31.079Z,11.59
2018-09-26T21:40:59.936Z,11.57
2018-09-26T21:43:28.828Z,11.65
2018-09-26T21:45:57.777Z,11.62
2018-09-26T21:48:26.662Z,11.61
2018-09-26T21:50:55.544Z,11.62
2018-09-26T21:53:24.692Z,11.60
2018-09-26T21:55:53.576Z,11.60
2018-09-26T21:58:22.445Z,11.54
2018-09-26T22:00:56.439Z,11.53
2018-09-26T22:03:25.282Z,11.52
2018-09-26T22:05:55.387Z,11.43
2018-09-26T22:08:24.251Z,11.43
2018-09-26T22:10:53.120Z,11.40
2018-09-26T22:13:22.641Z,11.42
2018-09-26T22:15:51.699Z,11.46
2018-09-26T22:18:20.554Z,11.46
2018-09-26T22:20:49.503Z,11.47
2018-09-26T22:23:18.399Z,11.51
2018-09-26T22:25:47.262Z,11.46
2018-09-26T22:28:16.204Z,11.46
2018-09-26T22:30:45.068Z,11.45
2018-09-26T22:33:13.907Z,11.44
2018-09-26T22:35:42.919Z,11.45
2018-09-26T22:38:11.787Z,11.40
2018-09-26T22:40:40.655Z,11.34
2018-09-26T22:43:09.619Z,11.32
2018-09-26T22:45:38.562Z,11.32
2018-09-26T22:48:07.480Z,11.19
2018-09-26T22:50:36.423Z,11.14
2018-09-26T22:53:05.296Z,11.08
2018-09-26T22:55:34.122Z,11.04
2018-09-26T22:58:03.123Z,10.95
2018-09-26T23:00:31.987Z,10.88
2018-09-26T23:03:00.888Z,10.82
2018-09-26T23:05:30.397Z,10.74
2018-09-26T23:07:59.355Z,10.73
2018-09-26T23:10:28.246Z,10.83
2018-09-26T23:12:59.600Z,10.83
2018-09-26T23:15:28.498Z,10.80
2018-09-26T23:17:57.345Z,10.75
2018-09-26T23:20:26.223Z,10.75
2018-09-26T23:22:55.135Z,10.80
2018-09-26T23:25:23.997Z,10.77
2018-09-26T23:27:52.963Z,10.74
2018-09-26T23:30:21.873Z,10.65
2018-09-26T23:32:50.847Z,10.58
2018-09-26T23:35:19.779Z,10.58
2018-09-26T23:37:48.675Z,10.61
2018-09-26T23:40:17.585Z,10.61
2018-09-26T23:42:46.499Z,10.65
2018-09-26T23:45:15.452Z,10.65
2018-09-26T23:47:44.320Z,10.64
2018-09-26T23:50:13.336Z,10.63
2018-09-26T23:52:42.169Z,10.65
2018-09-26T23:55:11.030Z,10.63
2018-09-26T23:57:39.890Z,10.60
